Time;durP1;ratioP1;P1;durP2;ratioP2;P2;SDS_P1;SDS_P2;PMS_P1;PMS_P2;Temp;Humidity;BMP_temperature;BMP_pressure;BME280_temperature;BME280_humidity;BME280_pressure;Samples;Min_cycle;Max_cycle;Signal;HPM_P1;HPM_P2
2023/05/01 00:01:32;;;;;;;12.32;4.60;;;4.80;84.40;;;;;;5009042;28;20026;-73
2023/05/01 00:03:57;;;;;;;11.20;4.55;;;4.80;84.10;;;;;;5000184;28;20056;-73
2023/05/01 00:06:22;;;;;;;12.60;4.65;;;4.80;84.00;;;;;;5002701;28;20054;-72
2023/05/01 00:08:48;;;;;;;10.13;4.70;;;4.70;84.00;;;;;;5008501;28;20143;-72
2023/05/01 00:11:14;;;;;;;10.05;4.45;;;4.70;83.90;;;;;;5001327;28;20053;-72
2023/05/01 00:13:40;;;;;;;9.27;4.25;;;4.70;83.90;;;;;;5015607;28;20020;-72
2023/05/01 00:16:09;;;;;;;7.75;3.80;;;4.60;83.70;;;;;;5005236;28;20419;-72
2023/05/01 00:18:35;;;;;;;6.60;3.72;;;4.60;83.80;;;;;;5003172;28;20095;-72
2023/05/01 00:21:00;;;;;;;9.55;3.83;;;4.60;83.60;;;;;;5010727;28;20056;-72
2023/05/01 00:23:26;;;;;;;7.78;4.68;;;4.70;83.70;;;;;;5017026;28;20109;-72
2023/05/01 00:25:52;;;;;;;9.82;3.67;;;4.70;83.10;;;;;;5004006;28;20081;-72
2023/05/01 00:28:18;;;;;;;8.75;3.70;;;4.70;83.10;;;;;;5002774;28;20056;-73
2023/05/01 00:30:44;;;;;;;6.82;3.97;;;4.70;83.10;;;;;;5000842;28;20102;-73
2023/05/01 00:33:10;;;;;;;7.35;4.03;;;4.70;83.00;;;;;;4999131;28;20038;-72
2023/05/01 00:35:35;;;;;;;9.05;3.60;;;4.60;82.70;;;;;;5006564;28;20034;-72
2023/05/01 00:38:01;;;;;;;9.82;3.50;;;4.60;82.60;;;;;;5005583;28;20075;-73
2023/05/01 00:40:27;;;;;;;7.97;3.47;;;4.70;81.90;;;;;;5003207;28;20044;-72
2023/05/01 00:42:53;;;;;;;6.65;3.33;;;4.90;81.10;;;;;;5007809;28;20390;-72
2023/05/01 00:45:19;;;;;;;7.40;3.53;;;4.80;81.30;;;;;;5013135;28;20018;-74
2023/05/01 00:47:45;;;;;;;5.55;2.90;;;4.80;80.90;;;;;;5013012;28;20041;-73
2023/05/01 00:50:11;;;;;;;5.22;3.05;;;4.80;81.70;;;;;;5000290;28;20049;-73
2023/05/01 00:52:38;;;;;;;9.50;3.30;;;4.80;81.20;;;;;;5003167;28;20026;-73
2023/05/01 00:55:04;;;;;;;7.15;3.42;;;4.80;81.40;;;;;;5005692;28;20026;-72
2023/05/01 00:57:30;;;;;;;6.45;3.10;;;4.90;80.30;;;;;;5007989;28;20037;-73
2023/05/01 00:59:56;;;;;;;11.13;3.20;;;4.90;81.20;;;;;;5003945;28;20363;-73
2023/05/01 01:02:22;;;;;;;9.48;3.03;;;4.90;80.10;;;;;;5000786;28;20140;-72
2023/05/01 01:04:48;;;;;;;8.00;3.05;;;5.10;79.40;;;;;;5004786;28;20038;-73
2023/05/01 01:07:23;;;;;;;8.07;3.20;;;5.00;79.30;;;;;;5011857;28;20041;-72
2023/05/01 01:10:14;;;;;;;9.18;3.13;;;5.00;79.20;;;;;;5004479;28;20118;-73
2023/05/01 01:12:53;;;;;;;7.85;3.25;;;5.00;79.70;;;;;;5005816;28;20022;-73
2023/05/01 01:15:38;;;;;;;5.30;2.80;;;5.00;79.30;;;;;;5005992;28;20480;-74
2023/05/01 01:18:22;;;;;;;7.43;2.83;;;5.00;79.00;;;;;;5005324;28;20046;-73
2023/05/01 01:20:55;;;;;;;6.68;2.83;;;5.10;78.60;;;;;;5006365;28;20034;-72
2023/05/01 01:23:52;;;;;;;6.72;3.00;;;5.10;78.20;;;;;;5004196;28;20104;-72
2023/05/01 01:26:44;;;;;;;7.88;3.03;;;5.10;78.40;;;;;;4997129;28;20058;-73
2023/05/01 01:29:35;;;;;;;6.80;2.88;;;5.10;77.70;;;;;;5001242;28;20030;-72
2023/05/01 01:32:33;;;;;;;7.68;2.92;;;5.20;77.60;;;;;;5000808;28;20326;-76
2023/05/01 01:35:09;;;;;;;6.30;2.50;;;5.20;77.30;;;;;;4998852;28;20155;-72
2023/05/01 01:37:48;;;;;;;8.68;3.13;;;5.20;77.60;;;;;;5002478;28;20446;-73
2023/05/01 01:40:17;;;;;;;8.30;3.15;;;5.10;77.60;;;;;;5007799;28;20034;-73
2023/05/01 01:42:48;;;;;;;10.88;3.25;;;5.10;77.70;;;;;;4996120;28;20033;-73
2023/05/01 01:45:22;;;;;;;5.60;2.90;;;5.10;78.10;;;;;;5006183;28;20112;-74
2023/05/01 01:47:50;;;;;;;8.73;2.95;;;5.00;77.80;;;;;;5008867;28;20092;-73
2023/05/01 01:50:19;;;;;;;6.47;2.88;;;5.10;78.10;;;;;;5004741;28;20269;-73
2023/05/01 01:52:48;;;;;;;6.47;3.05;;;5.10;78.20;;;;;;5004656;28;20023;-71
2023/05/01 01:55:16;;;;;;;9.95;2.90;;;5.10;78.10;;;;;;5004886;28;20041;-72
2023/05/01 01:57:43;;;;;;;12.70;3.45;;;5.10;78.10;;;;;;5005779;28;20017;-72
2023/05/01 02:00:11;;;;;;;8.70;2.83;;;5.00;78.30;;;;;;5006341;28;20040;-73
2023/05/01 02:02:38;;;;;;;9.35;2.97;;;5.00;78.70;;;;;;5006798;28;20030;-72
2023/05/01 02:05:06;;;;;;;6.30;2.97;;;5.00;78.80;;;;;;5003750;28;20041;-72
2023/05/01 02:07:33;;;;;;;9.15;2.97;;;4.90;78.70;;;;;;5007644;28;20022;-72
2023/05/01 02:10:01;;;;;;;9.13;3.65;;;4.90;78.80;;;;;;5005273;28;20117;-74
2023/05/01 02:12:26;;;;;;;7.68;3.08;;;4.90;78.70;;;;;;5012105;28;20029;-73
2023/05/01 02:14:53;;;;;;;7.18;2.85;;;4.80;79.40;;;;;;5002672;28;20128;-72
2023/05/01 02:17:20;;;;;;;9.13;3.13;;;4.80;80.10;;;;;;4998439;28;20136;-72
2023/05/01 02:19:46;;;;;;;9.77;3.47;;;4.70;79.70;;;;;;5000728;28;20365;-72
2023/05/01 02:22:13;;;;;;;7.55;3.17;;;4.70;79.40;;;;;;5002147;28;20079;-73
2023/05/01 02:24:41;;;;;;;7.10;2.60;;;4.70;79.80;;;;;;5005779;28;20034;-73
2023/05/01 02:27:15;;;;;;;9.90;3.17;;;4.70;79.20;;;;;;5005421;28;20473;-73
2023/05/01 02:29:41;;;;;;;5.45;2.78;;;4.70;79.30;;;;;;5001281;28;20339;-72
2023/05/01 02:32:07;;;;;;;10.02;3.05;;;4.80;79.40;;;;;;5000440;28;20021;-73
2023/05/01 02:34:35;;;;;;;6.57;2.97;;;4.80;79.00;;;;;;4998980;28;20041;-73
2023/05/01 02:37:05;;;;;;;10.13;3.30;;;4.80;78.70;;;;;;5005926;28;20037;-73
2023/05/01 02:39:30;;;;;;;7.20;2.97;;;4.80;79.00;;;;;;5001303;28;20030;-72
2023/05/01 02:41:57;;;;;;;7.95;2.65;;;4.80;78.90;;;;;;5005840;28;20030;-75
2023/05/01 02:44:24;;;;;;;10.93;3.10;;;4.90;78.40;;;;;;5004440;28;20423;-72
2023/05/01 02:46:52;;;;;;;11.05;2.65;;;5.00;77.90;;;;;;5004159;28;20119;-73
2023/05/01 02:49:17;;;;;;;6.60;2.97;;;5.00;77.80;;;;;;5003596;28;20084;-73
2023/05/01 02:51:45;;;;;;;5.80;2.67;;;5.00;77.70;;;;;;5005630;28;20056;-72
2023/05/01 02:54:12;;;;;;;5.45;2.78;;;5.00;77.90;;;;;;5002533;28;20036;-73
2023/05/01 02:56:38;;;;;;;7.88;2.80;;;5.00;77.60;;;;;;5005877;28;20438;-73
2023/05/01 02:59:03;;;;;;;5.90;2.65;;;5.00;77.90;;;;;;5003303;28;20144;-73
2023/05/01 03:01:29;;;;;;;6.13;2.65;;;5.00;77.70;;;;;;4998907;28;20200;-75
2023/05/01 03:03:55;;;;;;;8.25;2.70;;;5.00;78.10;;;;;;5004804;28;20030;-75
2023/05/01 03:06:20;;;;;;;7.10;2.70;;;5.00;78.20;;;;;;5001923;28;20389;-73
2023/05/01 03:08:46;;;;;;;5.35;2.60;;;5.00;78.10;;;;;;5005350;28;20092;-73
2023/05/01 03:11:12;;;;;;;8.15;2.75;;;5.00;77.80;;;;;;5006042;28;20033;-74
2023/05/01 03:13:37;;;;;;;10.73;2.97;;;5.10;77.40;;;;;;5007428;28;20036;-72
2023/05/01 03:16:03;;;;;;;8.00;2.95;;;5.20;77.00;;;;;;5004770;28;20431;-71
2023/05/01 03:18:28;;;;;;;7.07;2.85;;;5.30;76.60;;;;;;5001314;28;20033;-72
2023/05/01 03:20:55;;;;;;;8.32;3.17;;;5.30;77.10;;;;;;5009388;28;20038;-73
2023/05/01 03:23:22;;;;;;;6.75;2.45;;;5.50;75.80;;;;;;5006239;28;20150;-72
2023/05/01 03:25:48;;;;;;;5.25;2.65;;;5.50;75.80;;;;;;5004271;28;20462;-72
2023/05/01 03:28:13;;;;;;;5.03;2.20;;;5.60;75.20;;;;;;5007163;28;20268;-72
2023/05/01 03:30:39;;;;;;;9.48;2.53;;;5.60;75.20;;;;;;5005320;28;20029;-72
2023/05/01 03:33:04;;;;;;;6.18;2.80;;;5.60;75.40;;;;;;5008437;28;20139;-72
2023/05/01 03:35:30;;;;;;;6.78;2.13;;;5.50;75.80;;;;;;5002737;28;20053;-73
2023/05/01 03:37:55;;;;;;;7.38;2.85;;;5.40;76.10;;;;;;5007063;28;20045;-71
2023/05/01 03:40:21;;;;;;;5.07;2.67;;;5.40;76.90;;;;;;5008172;28;20288;-73
2023/05/01 03:42:46;;;;;;;10.52;2.33;;;5.30;76.40;;;;;;5007185;28;20039;-72
2023/05/01 03:45:11;;;;;;;7.68;2.33;;;5.30;76.90;;;;;;5007962;28;20121;-72
2023/05/01 03:47:37;;;;;;;9.50;2.60;;;5.20;77.10;;;;;;5005119;28;20053;-71
2023/05/01 03:50:03;;;;;;;6.68;2.70;;;5.20;76.90;;;;;;4999096;28;20062;-72
2023/05/01 03:52:29;;;;;;;7.80;3.03;;;5.10;77.80;;;;;;5006295;28;20021;-77
2023/05/01 03:54:54;;;;;;;6.80;2.80;;;5.00;77.70;;;;;;5009138;28;20033;-73
2023/05/01 03:57:21;;;;;;;8.07;2.78;;;5.00;77.80;;;;;;5005348;28;20030;-71
2023/05/01 03:59:47;;;;;;;8.30;2.60;;;5.00;78.10;;;;;;5003269;28;20033;-72
2023/05/01 04:02:13;;;;;;;7.97;3.00;;;5.00;77.80;;;;;;5003379;28;20034;-72
2023/05/01 04:04:38;;;;;;;9.75;3.20;;;4.90;78.30;;;;;;5002429;28;20036;-72
2023/05/01 04:07:04;;;;;;;6.45;2.88;;;5.00;78.60;;;;;;5006236;28;20112;-73
2023/05/01 04:09:29;;;;;;;6.25;3.10;;;5.00;78.40;;;;;;5009967;28;20046;-72
2023/05/01 04:11:55;;;;;;;6.70;2.88;;;5.00;78.10;;;;;;5014167;28;20039;-72
2023/05/01 04:14:21;;;;;;;7.10;2.50;;;5.00;78.50;;;;;;5008465;28;20029;-73
2023/05/01 04:16:46;;;;;;;6.85;2.85;;;5.00;78.50;;;;;;5006900;28;20390;-71
2023/05/01 04:19:12;;;;;;;8.98;2.53;;;5.10;78.20;;;;;;4999718;28;20062;-72
2023/05/01 04:21:37;;;;;;;6.20;2.55;;;5.10;78.20;;;;;;5000529;28;20029;-71
2023/05/01 04:24:03;;;;;;;8.60;3.05;;;5.10;77.80;;;;;;5005550;28;20041;-73
2023/05/01 04:26:28;;;;;;;6.50;2.80;;;5.20;77.70;;;;;;5010465;28;20050;-71
2023/05/01 04:28:54;;;;;;;5.85;2.83;;;5.30;78.00;;;;;;5001245;28;20371;-68
2023/05/01 04:31:19;;;;;;;12.13;2.95;;;5.30;77.90;;;;;;5003291;28;20127;-67
2023/05/01 04:33:45;;;;;;;5.25;2.38;;;5.30;77.40;;;;;;5001540;28;20033;-66
2023/05/01 04:36:11;;;;;;;7.47;2.45;;;5.40;77.00;;;;;;5005965;28;20053;-67
2023/05/01 04:38:36;;;;;;;8.38;2.50;;;5.40;77.60;;;;;;5007357;28;20449;-66
2023/05/01 04:41:03;;;;;;;9.32;3.05;;;5.40;77.90;;;;;;4998805;28;20164;-67
2023/05/01 04:43:29;;;;;;;4.90;2.53;;;5.40;77.40;;;;;;5005785;28;20054;-66
2023/05/01 04:45:54;;;;;;;6.28;2.50;;;5.50;77.10;;;;;;5011963;28;20163;-66
2023/05/01 04:48:20;;;;;;;6.35;2.65;;;5.50;77.00;;;;;;5012062;28;20080;-66
2023/05/01 04:50:45;;;;;;;7.38;2.72;;;5.50;76.90;;;;;;5011594;28;20034;-66
2023/05/01 04:53:11;;;;;;;5.47;2.25;;;5.60;76.90;;;;;;5011829;28;20030;-66
2023/05/01 04:55:36;;;;;;;8.90;2.72;;;5.60;77.00;;;;;;5012260;28;20022;-66
2023/05/01 04:58:03;;;;;;;8.70;2.97;;;5.60;76.80;;;;;;5005473;28;20030;-68
2023/05/01 05:00:29;;;;;;;10.18;2.70;;;5.60;77.20;;;;;;5004660;28;20092;-67
2023/05/01 05:02:55;;;;;;;5.28;2.60;;;5.60;76.70;;;;;;5001620;28;20029;-68
2023/05/01 05:05:21;;;;;;;6.40;2.60;;;5.60;76.50;;;;;;5003306;28;20486;-67
2023/05/01 05:07:47;;;;;;;8.45;2.72;;;5.70;76.30;;;;;;5004267;28;20085;-67
2023/05/01 05:10:12;;;;;;;4.93;2.35;;;5.80;76.00;;;;;;5004765;28;20072;-67
2023/05/01 05:12:38;;;;;;;6.85;2.25;;;5.80;76.20;;;;;;5005637;28;20037;-67
2023/05/01 05:15:04;;;;;;;5.45;2.75;;;5.70;77.40;;;;;;5006693;28;20109;-68
2023/05/01 05:17:29;;;;;;;5.75;2.40;;;5.70;77.60;;;;;;5000171;28;20360;-68
2023/05/01 05:19:55;;;;;;;8.80;2.80;;;5.70;76.80;;;;;;5000458;28;20164;-66
2023/05/01 05:22:20;;;;;;;5.45;2.50;;;5.70;76.80;;;;;;5004088;28;20466;-67
2023/05/01 05:24:46;;;;;;;5.82;2.63;;;5.80;76.30;;;;;;5002930;28;20088;-69
2023/05/01 05:27:11;;;;;;;7.97;2.60;;;5.90;76.40;;;;;;5001929;28;20430;-68
2023/05/01 05:29:37;;;;;;;7.25;2.78;;;5.90;76.30;;;;;;4998606;28;20026;-67
2023/05/01 05:32:03;;;;;;;6.20;2.42;;;6.00;76.10;;;;;;5000757;28;20041;-69
2023/05/01 05:34:28;;;;;;;8.98;3.05;;;6.10;76.10;;;;;;4998368;28;20033;-69
2023/05/01 05:36:54;;;;;;;9.35;2.55;;;6.20;75.80;;;;;;5007843;28;20114;-67
2023/05/01 05:39:22;;;;;;;6.05;2.72;;;6.30;75.80;;;;;;5002989;28;20018;-68
2023/05/01 05:41:48;;;;;;;8.38;2.95;;;6.50;75.20;;;;;;5007784;28;20033;-66
2023/05/01 05:44:14;;;;;;;7.78;2.47;;;6.60;74.00;;;;;;4999776;28;20036;-67
2023/05/01 05:46:39;;;;;;;7.95;2.55;;;6.90;74.20;;;;;;5001467;28;20463;-68
2023/05/01 05:49:05;;;;;;;4.57;2.30;;;7.10;73.40;;;;;;5001409;28;20048;-66
2023/05/01 05:51:30;;;;;;;9.55;2.65;;;7.20;73.00;;;;;;5005517;28;20029;-67
2023/05/01 05:53:56;;;;;;;6.63;2.78;;;7.30;72.60;;;;;;5013369;28;20021;-66
2023/05/01 05:56:23;;;;;;;5.47;2.40;;;7.40;72.10;;;;;;5003944;28;20429;-67
2023/05/01 05:58:48;;;;;;;7.40;2.88;;;7.50;72.10;;;;;;5005692;28;20215;-67
2023/05/01 06:01:14;;;;;;;9.07;2.63;;;7.50;71.40;;;;;;4992254;28;20453;-66
2023/05/01 06:03:40;;;;;;;8.25;2.97;;;7.60;71.30;;;;;;4999476;28;20068;-68
2023/05/01 06:06:05;;;;;;;7.45;2.85;;;7.70;71.50;;;;;;5003218;28;20401;-70
2023/05/01 06:08:31;;;;;;;12.68;3.42;;;7.80;70.40;;;;;;5007619;28;20056;-68
2023/05/01 06:10:57;;;;;;;8.65;3.20;;;8.00;70.30;;;;;;5004384;28;20108;-68
2023/05/01 06:13:23;;;;;;;7.47;2.65;;;8.10;69.80;;;;;;5005233;28;20041;-68
2023/05/01 06:15:49;;;;;;;7.85;2.70;;;8.20;70.00;;;;;;4997509;28;20041;-68
2023/05/01 06:18:14;;;;;;;8.23;2.67;;;8.30;68.90;;;;;;4999205;28;20695;-70
2023/05/01 06:20:41;;;;;;;6.85;2.30;;;8.60;68.10;;;;;;5013685;28;20042;-68
2023/05/01 06:23:08;;;;;;;7.97;2.40;;;8.80;68.30;;;;;;5006782;28;20049;-70
2023/05/01 06:25:34;;;;;;;6.47;2.67;;;8.80;67.40;;;;;;4998092;28;20041;-72
2023/05/01 06:28:00;;;;;;;8.48;2.45;;;9.00;66.20;;;;;;5001355;28;20037;-70
2023/05/01 06:30:25;;;;;;;6.95;2.90;;;9.20;66.40;;;;;;4996085;28;20103;-68
2023/05/01 06:32:51;;;;;;;7.47;2.45;;;9.30;66.00;;;;;;5000480;28;20044;-69
2023/05/01 06:35:16;;;;;;;4.90;2.33;;;9.70;67.10;;;;;;5004622;28;20033;-68
2023/05/01 06:37:42;;;;;;;6.97;2.78;;;9.90;65.90;;;;;;5002803;28;20076;-69
2023/05/01 06:40:08;;;;;;;6.72;2.60;;;9.80;63.80;;;;;;4999872;28;20033;-71
2023/05/01 06:42:35;;;;;;;9.60;2.20;;;9.80;65.00;;;;;;5006146;28;20083;-68
2023/05/01 06:45:01;;;;;;;9.13;2.53;;;10.10;63.70;;;;;;5011526;28;20101;-68
2023/05/01 06:47:26;;;;;;;7.55;3.08;;;10.20;64.40;;;;;;5000572;28;20543;-69
2023/05/01 06:49:51;;;;;;;8.10;2.20;;;10.50;63.40;;;;;;5002042;28;20052;-69
2023/05/01 06:52:17;;;;;;;5.20;2.58;;;10.50;61.80;;;;;;4998381;28;20156;-68
2023/05/01 06:54:42;;;;;;;6.82;2.53;;;10.40;63.30;;;;;;5005942;28;20112;-68
2023/05/01 06:57:08;;;;;;;8.00;2.10;;;10.50;61.80;;;;;;5000469;28;20574;-69
2023/05/01 06:59:33;;;;;;;6.60;2.35;;;10.80;61.30;;;;;;4997611;28;20034;-69
2023/05/01 07:01:59;;;;;;;5.47;2.42;;;11.00;60.00;;;;;;5000084;28;20052;-69
2023/05/01 07:04:24;;;;;;;4.80;2.25;;;11.10;60.30;;;;;;5000552;28;20033;-68
2023/05/01 07:06:50;;;;;;;5.22;2.22;;;10.80;58.90;;;;;;4997449;28;20084;-70
2023/05/01 07:09:15;;;;;;;7.65;2.78;;;11.10;58.20;;;;;;5002941;28;20026;-69
2023/05/01 07:11:41;;;;;;;4.47;2.38;;;11.20;59.00;;;;;;4998734;28;20100;-68
2023/05/01 07:14:07;;;;;;;9.02;2.38;;;11.40;57.10;;;;;;4998599;28;20047;-71
2023/05/01 07:16:33;;;;;;;6.32;2.35;;;11.40;58.20;;;;;;4996047;28;20112;-69
2023/05/01 07:18:58;;;;;;;5.20;2.20;;;11.60;56.90;;;;;;4999165;28;20101;-69
2023/05/01 07:21:24;;;;;;;6.72;2.90;;;11.80;56.70;;;;;;4999316;28;20056;-69
2023/05/01 07:23:49;;;;;;;7.07;2.40;;;12.20;56.80;;;;;;4997145;28;20030;-68
2023/05/01 07:26:15;;;;;;;7.00;2.17;;;12.50;57.60;;;;;;4994349;28;20663;-69
2023/05/01 07:28:40;;;;;;;7.75;2.03;;;12.60;56.30;;;;;;4998756;28;20050;-69
2023/05/01 07:31:08;;;;;;;6.20;2.00;;;12.80;56.00;;;;;;5000898;28;20426;-69
2023/05/01 07:33:34;;;;;;;7.00;2.53;;;13.10;55.50;;;;;;4993043;28;20022;-69
2023/05/01 07:35:59;;;;;;;4.43;2.17;;;13.40;52.20;;;;;;4997575;28;20386;-69
2023/05/01 07:38:25;;;;;;;5.55;2.10;;;13.30;53.80;;;;;;4998369;28;20040;-68
2023/05/01 07:40:52;;;;;;;8.20;2.60;;;13.60;52.20;;;;;;4995382;28;20057;-69
2023/05/01 07:43:17;;;;;;;6.63;2.20;;;13.70;51.80;;;;;;4998759;28;20042;-69
2023/05/01 07:45:57;;;;;;;9.40;2.75;;;13.70;53.20;;;;;;5003222;28;20034;-69
2023/05/01 07:48:22;;;;;;;6.97;2.30;;;13.80;51.40;;;;;;4994213;28;20088;-68
2023/05/01 07:50:48;;;;;;;7.10;2.25;;;14.00;51.80;;;;;;4997408;28;20037;-69
2023/05/01 07:53:13;;;;;;;11.13;2.00;;;14.30;52.20;;;;;;5005894;28;20107;-68
2023/05/01 07:55:39;;;;;;;5.43;2.25;;;14.70;51.20;;;;;;5005114;28;20355;-67
2023/05/01 07:58:05;;;;;;;11.30;2.47;;;14.80;49.30;;;;;;5007626;28;20080;-67
2023/05/01 08:00:30;;;;;;;8.00;2.08;;;14.90;50.10;;;;;;5006812;28;20041;-67
2023/05/01 08:02:56;;;;;;;7.97;2.22;;;15.10;48.90;;;;;;5000333;28;20034;-70
2023/05/01 08:05:21;;;;;;;6.28;2.13;;;15.40;49.80;;;;;;5003380;28;20406;-68
2023/05/01 08:07:47;;;;;;;6.10;2.08;;;15.20;49.40;;;;;;5006229;28;20033;-67
2023/05/01 08:10:13;;;;;;;3.67;1.83;;;15.50;48.90;;;;;;5001558;28;20073;-68
2023/05/01 08:12:38;;;;;;;6.03;2.08;;;15.50;47.50;;;;;;4996714;28;20513;-69
2023/05/01 08:15:05;;;;;;;7.90;2.28;;;15.50;46.60;;;;;;4996416;28;20060;-68
2023/05/01 08:17:30;;;;;;;5.75;2.17;;;15.10;46.10;;;;;;4999499;28;20137;-68
2023/05/01 08:19:56;;;;;;;6.82;2.22;;;14.80;46.40;;;;;;5000444;28;20125;-68
2023/05/01 08:22:22;;;;;;;6.13;1.80;;;15.50;47.20;;;;;;5001682;28;20068;-68
2023/05/01 08:24:49;;;;;;;6.05;1.80;;;15.70;46.00;;;;;;5002870;28;20061;-67
2023/05/01 08:27:14;;;;;;;6.38;2.35;;;15.70;47.00;;;;;;4999573;28;20100;-70
2023/05/01 08:29:40;;;;;;;7.70;2.15;;;16.10;46.30;;;;;;5003048;28;20034;-67
2023/05/01 08:32:05;;;;;;;6.85;2.10;;;16.40;45.80;;;;;;5000391;28;20048;-68
2023/05/01 08:34:31;;;;;;;7.38;1.90;;;16.30;46.30;;;;;;5001173;28;20025;-68
2023/05/01 08:36:57;;;;;;;3.97;1.70;;;16.20;44.10;;;;;;5001726;28;20375;-67
2023/05/01 08:39:22;;;;;;;6.50;2.15;;;15.70;45.60;;;;;;5004857;28;20161;-67
2023/05/01 08:41:48;;;;;;;3.70;1.73;;;15.80;46.10;;;;;;5001670;28;20200;-67
2023/05/01 08:44:15;;;;;;;7.90;2.08;;;15.80;44.60;;;;;;5005925;28;20026;-68
2023/05/01 08:46:59;;;;;;;7.10;1.90;;;16.20;46.80;;;;;;5004270;28;20022;-68
2023/05/01 08:49:27;;;;;;;4.10;1.65;;;16.50;45.30;;;;;;5001001;28;20104;-68
2023/05/01 08:51:55;;;;;;;5.82;2.13;;;16.40;44.80;;;;;;4997936;28;20063;-67
2023/05/01 08:54:22;;;;;;;6.80;1.77;;;16.50;44.30;;;;;;5004468;28;20029;-68
2023/05/01 08:56:49;;;;;;;4.63;1.70;;;16.70;45.40;;;;;;5003484;28;20073;-68
2023/05/01 08:59:15;;;;;;;6.57;2.15;;;17.20;44.20;;;;;;5006601;28;20033;-67
2023/05/01 09:01:42;;;;;;;7.05;2.03;;;16.80;42.50;;;;;;4989572;28;20030;-69
2023/05/01 09:04:09;;;;;;;5.00;1.90;;;17.10;44.60;;;;;;4995200;28;20048;-67
2023/05/01 09:06:35;;;;;;;4.30;1.42;;;17.10;43.00;;;;;;5003142;28;20675;-68
2023/05/01 09:09:00;;;;;;;4.18;1.73;;;17.60;45.60;;;;;;4996896;28;20069;-68
2023/05/01 09:11:27;;;;;;;7.10;1.60;;;17.70;42.20;;;;;;5002348;28;20038;-69
2023/05/01 09:13:53;;;;;;;5.82;1.92;;;17.50;43.40;;;;;;4998943;28;20719;-67
2023/05/01 09:16:19;;;;;;;5.40;1.85;;;17.40;42.30;;;;;;5001832;28;20356;-68
2023/05/01 09:18:45;;;;;;;10.15;2.03;;;17.00;43.40;;;;;;5006066;28;20036;-67
2023/05/01 09:21:11;;;;;;;5.05;1.80;;;16.70;44.10;;;;;;5005233;28;20040;-70
2023/05/01 09:23:36;;;;;;;5.82;2.15;;;17.20;42.80;;;;;;5000650;28;20054;-67
2023/05/01 09:26:06;;;;;;;7.65;2.10;;;17.00;42.80;;;;;;4998891;28;20054;-68
2023/05/01 09:28:46;;;;;;;4.23;1.97;;;17.40;43.50;;;;;;4993638;28;20022;-67
2023/05/01 09:31:21;;;;;;;3.88;1.77;;;17.10;44.40;;;;;;4998441;28;20037;-67
2023/05/01 09:34:01;;;;;;;4.65;1.90;;;17.00;44.00;;;;;;4995414;28;20038;-66
2023/05/01 09:36:29;;;;;;;6.07;2.10;;;17.60;41.90;;;;;;5009660;28;20040;-68
2023/05/01 09:38:56;;;;;;;8.32;2.33;;;18.10;44.20;;;;;;5005720;28;20017;-68
2023/05/01 09:41:22;;;;;;;6.05;1.90;;;18.20;41.70;;;;;;5009373;28;20032;-67
2023/05/01 09:43:53;;;;;;;6.43;1.88;;;17.60;41.00;;;;;;4998702;28;20074;-68
2023/05/01 09:46:19;;;;;;;;;;;17.70;42.00;;;;;;5003493;28;20084;-67
2023/05/01 09:48:52;;;;;;;7.65;2.00;;;17.50;41.60;;;;;;4998825;28;19936;-66
2023/05/01 09:51:32;;;;;;;6.03;2.10;;;18.40;44.00;;;;;;5000256;28;20142;-67
2023/05/01 09:53:59;;;;;;;3.58;1.75;;;18.00;42.00;;;;;;4999872;28;20431;-67
2023/05/01 09:56:26;;;;;;;4.95;1.90;;;18.00;41.90;;;;;;5004323;28;20103;-66
2023/05/01 09:58:52;;;;;;;7.85;2.03;;;17.60;40.40;;;;;;4998308;28;20030;-67
2023/05/01 10:01:39;;;;;;;4.95;1.80;;;18.00;40.90;;;;;;5002127;28;20112;-68
2023/05/01 10:04:05;;;;;;;4.82;1.73;;;17.60;41.50;;;;;;4993090;28;20474;-67
2023/05/01 10:06:31;;;;;;;5.25;1.92;;;17.80;42.10;;;;;;4996597;28;20069;-68
2023/05/01 10:08:56;;;;;;;6.45;1.75;;;18.30;41.50;;;;;;4998795;28;20539;-67
2023/05/01 10:11:22;;;;;;;4.55;1.77;;;18.20;41.10;;;;;;5004483;28;20450;-68
2023/05/01 10:14:08;;;;;;;4.38;1.88;;;18.50;40.10;;;;;;5005232;28;20441;-68
2023/05/01 10:16:35;;;;;;;8.05;1.80;;;18.90;42.10;;;;;;5002363;28;20531;-68
2023/05/01 10:19:02;;;;;;;8.95;2.10;;;19.10;42.30;;;;;;4994378;28;20320;-67
2023/05/01 10:21:27;;;;;;;6.18;1.95;;;19.30;40.10;;;;;;5006161;28;20064;-67
2023/05/01 10:23:54;;;;;;;5.22;1.60;;;19.30;40.00;;;;;;5004214;28;20101;-70
2023/05/01 10:26:20;;;;;;;5.53;2.17;;;19.00;38.20;;;;;;5000668;28;20128;-67
2023/05/01 10:28:47;;;;;;;5.55;1.92;;;19.10;39.70;;;;;;4998605;28;20117;-71
2023/05/01 10:31:14;;;;;;;7.28;1.90;;;19.50;38.30;;;;;;4997161;28;20100;-68
2023/05/01 10:33:41;;;;;;;5.57;1.95;;;19.60;38.60;;;;;;4996859;28;20021;-67
2023/05/01 10:36:14;;;;;;;5.47;1.90;;;19.70;39.60;;;;;;5001443;28;20171;-67
2023/05/01 10:38:44;;;;;;;3.38;1.63;;;19.70;38.80;;;;;;5000912;28;20121;-68
2023/05/01 10:41:10;;;;;;;6.10;1.90;;;19.50;39.10;;;;;;5003409;28;20030;-67
2023/05/01 10:43:35;;;;;;;6.30;1.98;;;19.40;40.00;;;;;;5005147;28;20179;-68
2023/05/01 10:46:07;;;;;;;5.22;1.88;;;19.40;38.00;;;;;;4997781;28;20105;-68
2023/05/01 10:48:38;;;;;;;20.50;2.47;;;19.50;40.10;;;;;;5001502;28;20022;-67
2023/05/01 10:51:16;;;;;;;3.88;1.75;;;19.50;39.10;;;;;;5002393;28;20120;-67
2023/05/01 10:53:43;;;;;;;6.15;1.80;;;19.50;38.60;;;;;;5002083;28;20033;-67
2023/05/01 10:56:20;;;;;;;5.55;1.67;;;19.30;37.90;;;;;;5010703;28;20109;-68
2023/05/01 10:58:50;;;;;;;3.33;1.58;;;20.00;39.10;;;;;;5002541;28;20030;-67
2023/05/01 11:01:40;;;;;;;2.90;1.40;;;20.40;38.70;;;;;;4995057;28;20021;-70
2023/05/01 11:04:20;;;;;;;3.97;1.65;;;20.20;37.40;;;;;;5008152;28;20029;-68
2023/05/01 11:07:04;;;;;;;7.50;2.28;;;20.30;36.00;;;;;;5016810;28;20505;-68
2023/05/01 11:09:48;;;;;;;4.80;1.85;;;19.80;37.50;;;;;;5000472;28;20049;-69
2023/05/01 11:12:15;;;;;;;4.20;1.63;;;20.30;37.20;;;;;;5002793;28;20017;-67
2023/05/01 11:14:52;;;;;;;4.55;1.63;;;20.20;36.60;;;;;;5000215;28;20574;-69
2023/05/01 11:17:40;;;;;;;4.80;1.60;;;20.40;36.60;;;;;;4997984;28;20116;-68
2023/05/01 11:20:34;;;;;;;3.63;1.40;;;20.10;36.20;;;;;;5002213;28;20022;-68
2023/05/01 11:23:00;;;;;;;6.93;2.00;;;21.00;37.70;;;;;;5117111;23;20069;-68
2023/05/01 11:25:29;;;;;;;8.80;1.95;;;21.50;35.90;;;;;;5018129;28;20434;-67
2023/05/01 11:27:59;;;;;;;5.97;1.83;;;21.30;36.20;;;;;;5023576;28;20106;-70
2023/05/01 11:30:25;;;;;;;4.53;1.70;;;21.50;35.60;;;;;;5023745;28;20037;-67
2023/05/01 11:32:51;;;;;;;4.35;1.55;;;21.20;34.90;;;;;;5021719;28;22450;-69
2023/05/01 11:35:21;;;;;;;3.15;1.40;;;21.20;35.30;;;;;;5019450;28;20034;-68
2023/05/01 11:37:47;;;;;;;;;;;21.70;36.70;;;;;;5027853;28;20030;-68
2023/05/01 11:40:28;;;;;;;3.33;1.17;;;21.00;33.60;;;;;;5026296;28;19912;-67
2023/05/01 11:43:01;;;;;;;7.18;1.50;;;20.70;33.70;;;;;;5026180;28;20069;-69
2023/05/01 11:45:28;;;;;;;5.63;1.50;;;21.00;33.20;;;;;;5029839;28;20042;-69
2023/05/01 11:47:53;;;;;;;4.10;1.40;;;21.00;36.00;;;;;;5025108;28;20033;-70
2023/05/01 11:50:20;;;;;;;7.40;1.63;;;21.80;35.80;;;;;;5025560;28;20033;-69
2023/05/01 11:52:48;;;;;;;3.63;1.45;;;22.00;35.20;;;;;;5029936;28;20021;-68
2023/05/01 11:55:15;;;;;;;5.85;1.63;;;21.70;36.90;;;;;;5012849;28;20390;-70
2023/05/01 11:57:49;;;;;;;5.05;1.33;;;21.90;36.90;;;;;;5013116;28;20113;-68
2023/05/01 12:00:16;;;;;;;5.97;1.50;;;22.40;34.60;;;;;;5030478;28;20022;-68
2023/05/01 12:02:58;;;;;;;4.15;1.33;;;22.70;34.40;;;;;;5024860;28;20037;-69
2023/05/01 12:05:25;;;;;;;2.92;1.05;;;22.50;34.10;;;;;;5028916;28;20159;-68
2023/05/01 12:07:50;;;;;;;2.65;1.20;;;22.20;33.40;;;;;;5028944;28;20057;-68
2023/05/01 12:10:17;;;;;;;3.83;1.50;;;21.90;33.80;;;;;;5024551;28;20064;-69
2023/05/01 12:12:43;;;;;;;4.57;1.50;;;21.70;33.30;;;;;;5012101;28;20425;-69
2023/05/01 12:15:09;;;;;;;3.58;1.30;;;21.70;34.10;;;;;;5006888;28;20065;-69
2023/05/01 12:17:35;;;;;;;3.78;1.25;;;22.30;34.60;;;;;;4995667;28;20018;-69
2023/05/01 12:20:02;;;;;;;3.63;1.33;;;22.90;33.00;;;;;;5008350;28;20048;-68
2023/05/01 12:22:28;;;;;;;2.40;1.15;;;22.40;33.60;;;;;;5005931;28;20111;-68
2023/05/01 12:24:54;;;;;;;7.68;1.42;;;21.90;33.80;;;;;;5004825;28;20112;-68
2023/05/01 12:27:20;;;;;;;2.35;1.05;;;21.90;34.00;;;;;;5004919;28;20346;-68
2023/05/01 12:29:46;;;;;;;4.55;1.33;;;21.90;32.80;;;;;;5004399;28;20018;-68
2023/05/01 12:32:13;;;;;;;1.92;1.20;;;22.80;33.90;;;;;;5003373;28;20104;-68
2023/05/01 12:34:39;;;;;;;3.30;1.40;;;23.30;32.90;;;;;;4998387;28;20053;-69
2023/05/01 12:37:04;;;;;;;3.33;1.33;;;23.20;31.80;;;;;;5001134;28;20174;-69
2023/05/01 12:39:41;;;;;;;2.65;1.20;;;22.90;32.50;;;;;;5000826;28;20030;-70
2023/05/01 12:42:14;;;;;;;5.18;1.42;;;22.80;32.00;;;;;;5011255;28;20275;-67
2023/05/01 12:44:39;;;;;;;4.45;1.13;;;22.70;33.00;;;;;;5008818;28;20484;-68
2023/05/01 12:47:07;;;;;;;4.07;1.15;;;23.00;34.90;;;;;;5005381;28;20060;-67
2023/05/01 12:49:37;;;;;;;4.10;1.23;;;22.70;33.40;;;;;;5003885;28;20082;-69
2023/05/01 12:52:06;;;;;;;3.65;1.15;;;23.50;33.00;;;;;;5002162;28;20056;-67
2023/05/01 12:54:37;;;;;;;4.70;1.23;;;23.50;32.50;;;;;;5007278;28;20098;-67
2023/05/01 12:57:10;;;;;;;3.40;1.17;;;23.60;31.40;;;;;;5009940;28;20101;-68